sensor_id;sensor_type;location;lat;lon;timestamp;pressure;altitude;pressure_sealevel;temperature;humidity
64453;BME280;50813;52.654;6.766;2023-04-24T00:01:45;99668.0;;;9.93;100.0
64453;BME280;50813;52.654;6.766;2023-04-24T00:03:22;99669.0;;;9.86;100.0
64453;BME280;50813;52.654;6.766;2023-04-24T00:04:59;99667.0;;;9.78;100.0
64453;BME280;50813;52.654;6.766;2023-04-24T00:06:36;99666.0;;;9.8;100.0
64453;BME280;50813;52.654;6.766;2023-04-24T00:09:48;99669.0;;;9.76;100.0
64453;BME280;50813;52.654;6.766;2023-04-24T00:11:25;99660.0;;;9.73;100.0
64453;BME280;50813;52.654;6.766;2023-04-24T00:13:02;99668.0;;;9.68;100.0
64453;BME280;50813;52.654;6.766;2023-04-24T00:16:15;99666.0;;;9.68;100.0
64453;BME280;50813;52.654;6.766;2023-04-24T00:17:51;99663.0;;;9.66;100.0
64453;BME280;50813;52.654;6.766;2023-04-24T00:19:27;99668.0;;;9.69;100.0
64453;BME280;50813;52.654;6.766;2023-04-24T00:22:41;99669.0;;;9.71;100.0
64453;BME280;50813;52.654;6.766;2023-04-24T00:24:17;99668.0;;;9.64;100.0
64453;BME280;50813;52.654;6.766;2023-04-24T00:25:54;99674.0;;;9.6;100.0
64453;BME280;50813;52.654;6.766;2023-04-24T00:27:31;99682.0;;;9.55;100.0
64453;BME280;50813;52.654;6.766;2023-04-24T00:30:45;99671.0;;;9.55;100.0
64453;BME280;50813;52.654;6.766;2023-04-24T00:32:21;99683.0;;;9.57;100.0
64453;BME280;50813;52.654;6.766;2023-04-24T00:33:57;99675.0;;;9.51;100.0
64453;BME280;50813;52.654;6.766;2023-04-24T00:37:11;99680.0;;;9.48;100.0
64453;BME280;50813;52.654;6.766;2023-04-24T00:38:47;99688.0;;;9.44;100.0
64453;BME280;50813;52.654;6.766;2023-04-24T00:40:23;99680.0;;;9.48;100.0
64453;BME280;50813;52.654;6.766;2023-04-24T00:43:36;99674.0;;;9.4;100.0
64453;BME280;50813;52.654;6.766;2023-04-24T00:45:12;99682.0;;;9.48;100.0
64453;BME280;50813;52.654;6.766;2023-04-24T00:46:49;99690.0;;;9.42;100.0
64453;BME280;50813;52.654;6.766;2023-04-24T00:48:27;99692.0;;;9.47;100.0
64453;BME280;50813;52.654;6.766;2023-04-24T00:51:43;99693.0;;;9.43;100.0
64453;BME280;50813;52.654;6.766;2023-04-24T00:53:19;99692.0;;;9.42;100.0
64453;BME280;50813;52.654;6.766;2023-04-24T00:54:56;99687.0;;;9.38;100.0
64453;BME280;50813;52.654;6.766;2023-04-24T00:58:10;99693.0;;;9.39;100.0
64453;BME280;50813;52.654;6.766;2023-04-24T00:59:47;99691.0;;;9.35;100.0
64453;BME280;50813;52.654;6.766;2023-04-24T01:01:24;99682.0;;;9.39;100.0
64453;BME280;50813;52.654;6.766;2023-04-24T01:04:41;99692.0;;;9.39;100.0
64453;BME280;50813;52.654;6.766;2023-04-24T01:06:18;99689.0;;;9.38;100.0
64453;BME280;50813;52.654;6.766;2023-04-24T01:07:56;99691.0;;;9.4;100.0
64453;BME280;50813;52.654;6.766;2023-04-24T01:09:34;99699.0;;;9.35;100.0
64453;BME280;50813;52.654;6.766;2023-04-24T01:12:47;99692.0;;;9.38;100.0
64453;BME280;50813;52.654;6.766;2023-04-24T01:14:24;99700.0;;;9.31;100.0
64453;BME280;50813;52.654;6.766;2023-04-24T01:16:02;99693.0;;;9.21;100.0
64453;BME280;50813;52.654;6.766;2023-04-24T01:19:17;99698.0;;;9.26;100.0
64453;BME280;50813;52.654;6.766;2023-04-24T01:20:57;99699.0;;;9.24;100.0
64453;BME280;50813;52.654;6.766;2023-04-24T01:22:40;99705.0;;;9.31;100.0
64453;BME280;50813;52.654;6.766;2023-04-24T01:24:17;99701.0;;;9.38;100.0
64453;BME280;50813;52.654;6.766;2023-04-24T01:27:31;99703.0;;;9.25;100.0
64453;BME280;50813;52.654;6.766;2023-04-24T01:29:08;99696.0;;;9.28;100.0
64453;BME280;50813;52.654;6.766;2023-04-24T01:30:46;99702.0;;;9.35;100.0
64453;BME280;50813;52.654;6.766;2023-04-24T01:32:23;99699.0;;;9.39;100.0
64453;BME280;50813;52.654;6.766;2023-04-24T01:35:36;99708.0;;;9.35;100.0
64453;BME280;50813;52.654;6.766;2023-04-24T01:37:13;99706.0;;;9.39;100.0
64453;BME280;50813;52.654;6.766;2023-04-24T01:38:51;99700.0;;;9.33;100.0
64453;BME280;50813;52.654;6.766;2023-04-24T01:42:05;99705.0;;;9.43;100.0
64453;BME280;50813;52.654;6.766;2023-04-24T01:43:42;99702.0;;;9.46;100.0
64453;BME280;50813;52.654;6.766;2023-04-24T01:45:19;99700.0;;;9.46;100.0
64453;BME280;50813;52.654;6.766;2023-04-24T01:48:33;99694.0;;;9.46;100.0
64453;BME280;50813;52.654;6.766;2023-04-24T01:50:10;99691.0;;;9.49;100.0
64453;BME280;50813;52.654;6.766;2023-04-24T01:51:48;99698.0;;;9.51;100.0
64453;BME280;50813;52.654;6.766;2023-04-24T01:53:24;99699.0;;;9.56;100.0
64453;BME280;50813;52.654;6.766;2023-04-24T01:56:41;99697.0;;;9.55;100.0
64453;BME280;50813;52.654;6.766;2023-04-24T01:58:19;99700.0;;;9.52;100.0
64453;BME280;50813;52.654;6.766;2023-04-24T01:59:56;99703.0;;;9.53;100.0
64453;BME280;50813;52.654;6.766;2023-04-24T02:03:11;99703.0;;;9.61;100.0
64453;BME280;50813;52.654;6.766;2023-04-24T02:04:48;99703.0;;;9.64;100.0
64453;BME280;50813;52.654;6.766;2023-04-24T02:06:24;99702.0;;;9.61;100.0
64453;BME280;50813;52.654;6.766;2023-04-24T02:08:00;99703.0;;;9.59;100.0
64453;BME280;50813;52.654;6.766;2023-04-24T02:11:13;99700.0;;;9.61;100.0
64453;BME280;50813;52.654;6.766;2023-04-24T02:12:49;99699.0;;;9.61;100.0
64453;BME280;50813;52.654;6.766;2023-04-24T02:14:26;99706.0;;;9.64;100.0
64453;BME280;50813;52.654;6.766;2023-04-24T02:17:40;99701.0;;;9.61;100.0
64453;BME280;50813;52.654;6.766;2023-04-24T02:19:16;99707.0;;;9.58;100.0
64453;BME280;50813;52.654;6.766;2023-04-24T02:20:53;99712.0;;;9.64;100.0
64453;BME280;50813;52.654;6.766;2023-04-24T02:24:06;99706.0;;;9.71;100.0
64453;BME280;50813;52.654;6.766;2023-04-24T02:25:42;99708.0;;;9.63;100.0
64453;BME280;50813;52.654;6.766;2023-04-24T02:27:18;99707.0;;;9.64;100.0
64453;BME280;50813;52.654;6.766;2023-04-24T02:28:56;99697.0;;;9.69;100.0
64453;BME280;50813;52.654;6.766;2023-04-24T02:32:09;99707.0;;;9.61;100.0
64453;BME280;50813;52.654;6.766;2023-04-24T02:33:45;99707.0;;;9.65;100.0
64453;BME280;50813;52.654;6.766;2023-04-24T02:35:21;99710.0;;;9.72;100.0
64453;BME280;50813;52.654;6.766;2023-04-24T02:38:36;99707.0;;;9.63;100.0
64453;BME280;50813;52.654;6.766;2023-04-24T02:40:12;99700.0;;;9.61;100.0
64453;BME280;50813;52.654;6.766;2023-04-24T02:41:49;99698.0;;;9.57;100.0
64453;BME280;50813;52.654;6.766;2023-04-24T02:45:03;99701.0;;;9.59;100.0
64453;BME280;50813;52.654;6.766;2023-04-24T02:46:39;99697.0;;;9.64;100.0
64453;BME280;50813;52.654;6.766;2023-04-24T02:48:17;99696.0;;;9.69;100.0
64453;BME280;50813;52.654;6.766;2023-04-24T02:49:53;99696.0;;;9.64;100.0
64453;BME280;50813;52.654;6.766;2023-04-24T02:53:06;99695.0;;;9.6;100.0
64453;BME280;50813;52.654;6.766;2023-04-24T02:54:43;99697.0;;;9.6;100.0
64453;BME280;50813;52.654;6.766;2023-04-24T02:56:19;99695.0;;;9.61;100.0
64453;BME280;50813;52.654;6.766;2023-04-24T02:59:33;99698.0;;;9.64;100.0
64453;BME280;50813;52.654;6.766;2023-04-24T03:01:09;99694.0;;;9.57;100.0
64453;BME280;50813;52.654;6.766;2023-04-24T03:02:46;99694.0;;;9.66;100.0
64453;BME280;50813;52.654;6.766;2023-04-24T03:04:23;99694.0;;;9.63;100.0
64453;BME280;50813;52.654;6.766;2023-04-24T03:07:35;99692.0;;;9.59;100.0
64453;BME280;50813;52.654;6.766;2023-04-24T03:09:12;99690.0;;;9.56;100.0
64453;BME280;50813;52.654;6.766;2023-04-24T03:10:50;99696.0;;;9.56;100.0
64453;BME280;50813;52.654;6.766;2023-04-24T03:14:03;99692.0;;;9.58;100.0
64453;BME280;50813;52.654;6.766;2023-04-24T03:15:40;99690.0;;;9.58;100.0
64453;BME280;50813;52.654;6.766;2023-04-24T03:17:17;99705.0;;;9.6;100.0
64453;BME280;50813;52.654;6.766;2023-04-24T03:20:30;99703.0;;;9.64;100.0
64453;BME280;50813;52.654;6.766;2023-04-24T03:22:08;99700.0;;;9.59;100.0
64453;BME280;50813;52.654;6.766;2023-04-24T03:23:44;99710.0;;;9.56;100.0
64453;BME280;50813;52.654;6.766;2023-04-24T03:25:21;99708.0;;;9.55;100.0
64453;BME280;50813;52.654;6.766;2023-04-24T03:28:35;99718.0;;;9.52;100.0
64453;BME280;50813;52.654;6.766;2023-04-24T03:30:12;99719.0;;;9.44;100.0
64453;BME280;50813;52.654;6.766;2023-04-24T03:31:49;99712.0;;;9.48;100.0
64453;BME280;50813;52.654;6.766;2023-04-24T03:35:03;99717.0;;;9.48;100.0
64453;BME280;50813;52.654;6.766;2023-04-24T03:36:40;99714.0;;;9.47;100.0
64453;BME280;50813;52.654;6.766;2023-04-24T03:38:16;99712.0;;;9.5;100.0
64453;BME280;50813;52.654;6.766;2023-04-24T03:41:29;99710.0;;;9.48;100.0
64453;BME280;50813;52.654;6.766;2023-04-24T03:43:05;99716.0;;;9.55;100.0
64453;BME280;50813;52.654;6.766;2023-04-24T03:44:41;99712.0;;;9.42;100.0
64453;BME280;50813;52.654;6.766;2023-04-24T03:46:18;99712.0;;;9.4;100.0
64453;BME280;50813;52.654;6.766;2023-04-24T03:49:33;99719.0;;;9.41;100.0
64453;BME280;50813;52.654;6.766;2023-04-24T03:51:09;99721.0;;;9.4;100.0
64453;BME280;50813;52.654;6.766;2023-04-24T03:52:46;99725.0;;;9.39;100.0
64453;BME280;50813;52.654;6.766;2023-04-24T03:55:59;99724.0;;;9.46;100.0
64453;BME280;50813;52.654;6.766;2023-04-24T03:57:35;99724.0;;;9.46;100.0
64453;BME280;50813;52.654;6.766;2023-04-24T03:59:12;99724.0;;;9.34;100.0
64453;BME280;50813;52.654;6.766;2023-04-24T04:02:26;99727.0;;;9.41;100.0
64453;BME280;50813;52.654;6.766;2023-04-24T04:04:02;99722.0;;;9.34;100.0
64453;BME280;50813;52.654;6.766;2023-04-24T04:05:38;99725.0;;;9.31;100.0
64453;BME280;50813;52.654;6.766;2023-04-24T04:07:15;99730.0;;;9.39;100.0
64453;BME280;50813;52.654;6.766;2023-04-24T04:10:29;99728.0;;;9.31;100.0
64453;BME280;50813;52.654;6.766;2023-04-24T04:12:06;99728.0;;;9.32;100.0
64453;BME280;50813;52.654;6.766;2023-04-24T04:13:44;99730.0;;;9.23;100.0
64453;BME280;50813;52.654;6.766;2023-04-24T04:16:58;99735.0;;;9.25;100.0
64453;BME280;50813;52.654;6.766;2023-04-24T04:18:34;99743.0;;;9.21;100.0
64453;BME280;50813;52.654;6.766;2023-04-24T04:20:11;99749.0;;;9.23;100.0
64453;BME280;50813;52.654;6.766;2023-04-24T04:21:47;99750.0;;;9.23;100.0
64453;BME280;50813;52.654;6.766;2023-04-24T04:25:00;99749.0;;;9.23;100.0
64453;BME280;50813;52.654;6.766;2023-04-24T04:26:37;99761.0;;;9.27;100.0
64453;BME280;50813;52.654;6.766;2023-04-24T04:28:14;99757.0;;;9.26;100.0
64453;BME280;50813;52.654;6.766;2023-04-24T04:31:27;99759.0;;;9.26;100.0
64453;BME280;50813;52.654;6.766;2023-04-24T04:33:03;99761.0;;;9.23;100.0
64453;BME280;50813;52.654;6.766;2023-04-24T04:34:39;99760.0;;;9.28;100.0
64453;BME280;50813;52.654;6.766;2023-04-24T04:37:51;99756.0;;;9.28;100.0
64453;BME280;50813;52.654;6.766;2023-04-24T04:39:28;99760.0;;;9.3;100.0
64453;BME280;50813;52.654;6.766;2023-04-24T04:41:04;99758.0;;;9.25;100.0
64453;BME280;50813;52.654;6.766;2023-04-24T04:44:16;99764.0;;;9.34;100.0
64453;BME280;50813;52.654;6.766;2023-04-24T04:45:52;99762.0;;;9.35;100.0
64453;BME280;50813;52.654;6.766;2023-04-24T04:47:28;99758.0;;;9.34;100.0
64453;BME280;50813;52.654;6.766;2023-04-24T04:49:04;99766.0;;;9.35;100.0
64453;BME280;50813;52.654;6.766;2023-04-24T04:52:17;99768.0;;;9.39;100.0
64453;BME280;50813;52.654;6.766;2023-04-24T04:53:53;99768.0;;;9.38;100.0
64453;BME280;50813;52.654;6.766;2023-04-24T04:55:30;99766.0;;;9.35;100.0
64453;BME280;50813;52.654;6.766;2023-04-24T04:58:42;99765.0;;;9.34;100.0
64453;BME280;50813;52.654;6.766;2023-04-24T05:00:18;99769.0;;;9.38;100.0
64453;BME280;50813;52.654;6.766;2023-04-24T05:01:55;99771.0;;;9.36;100.0
64453;BME280;50813;52.654;6.766;2023-04-24T05:05:08;99768.0;;;9.38;100.0
64453;BME280;50813;52.654;6.766;2023-04-24T05:06:45;99776.0;;;9.44;100.0
64453;BME280;50813;52.654;6.766;2023-04-24T05:08:21;99775.0;;;9.41;100.0
64453;BME280;50813;52.654;6.766;2023-04-24T05:09:57;99776.0;;;9.35;100.0
64453;BME280;50813;52.654;6.766;2023-04-24T05:13:09;99778.0;;;9.42;100.0
64453;BME280;50813;52.654;6.766;2023-04-24T05:14:45;99785.0;;;9.38;100.0
64453;BME280;50813;52.654;6.766;2023-04-24T05:16:21;99780.0;;;9.35;100.0
64453;BME280;50813;52.654;6.766;2023-04-24T05:19:34;99777.0;;;9.44;100.0
64453;BME280;50813;52.654;6.766;2023-04-24T05:21:11;99776.0;;;9.33;100.0
64453;BME280;50813;52.654;6.766;2023-04-24T05:22:47;99783.0;;;9.35;100.0
64453;BME280;50813;52.654;6.766;2023-04-24T05:25:59;99786.0;;;9.33;100.0
64453;BME280;50813;52.654;6.766;2023-04-24T05:27:36;99780.0;;;9.27;100.0
64453;BME280;50813;52.654;6.766;2023-04-24T05:29:12;99787.0;;;9.24;100.0
64453;BME280;50813;52.654;6.766;2023-04-24T05:30:48;99783.0;;;9.23;100.0
64453;BME280;50813;52.654;6.766;2023-04-24T05:34:00;99778.0;;;9.24;100.0
64453;BME280;50813;52.654;6.766;2023-04-24T05:35:37;99787.0;;;9.31;100.0
64453;BME280;50813;52.654;6.766;2023-04-24T05:37:13;99784.0;;;9.31;100.0
64453;BME280;50813;52.654;6.766;2023-04-24T05:40:25;99783.0;;;9.31;100.0
64453;BME280;50813;52.654;6.766;2023-04-24T05:42:02;99786.0;;;9.23;100.0
64453;BME280;50813;52.654;6.766;2023-04-24T05:43:38;99794.0;;;9.24;100.0
64453;BME280;50813;52.654;6.766;2023-04-24T05:46:51;99793.0;;;9.23;100.0
64453;BME280;50813;52.654;6.766;2023-04-24T05:48:27;99799.0;;;9.18;100.0
64453;BME280;50813;52.654;6.766;2023-04-24T05:50:05;99796.0;;;9.16;100.0
64453;BME280;50813;52.654;6.766;2023-04-24T05:53:17;99796.0;;;9.06;100.0
64453;BME280;50813;52.654;6.766;2023-04-24T05:54:53;99800.0;;;9.06;100.0
64453;BME280;50813;52.654;6.766;2023-04-24T05:56:30;99793.0;;;9.02;100.0
64453;BME280;50813;52.654;6.766;2023-04-24T05:58:06;99793.0;;;9.06;100.0
64453;BME280;50813;52.654;6.766;2023-04-24T06:01:19;99791.0;;;9.07;100.0
64453;BME280;50813;52.654;6.766;2023-04-24T06:02:55;99799.0;;;9.07;100.0
64453;BME280;50813;52.654;6.766;2023-04-24T06:04:31;99801.0;;;9.06;100.0
64453;BME280;50813;52.654;6.766;2023-04-24T06:07:44;99799.0;;;9.02;100.0
64453;BME280;50813;52.654;6.766;2023-04-24T06:09:21;99798.0;;;9.0;100.0
64453;BME280;50813;52.654;6.766;2023-04-24T06:10:57;99806.0;;;9.03;100.0
64453;BME280;50813;52.654;6.766;2023-04-24T06:14:09;99802.0;;;9.07;100.0
64453;BME280;50813;52.654;6.766;2023-04-24T06:17:21;99807.0;;;8.96;100.0
64453;BME280;50813;52.654;6.766;2023-04-24T06:18:57;99819.0;;;8.94;100.0
64453;BME280;50813;52.654;6.766;2023-04-24T06:22:10;99819.0;;;8.89;100.0
64453;BME280;50813;52.654;6.766;2023-04-24T06:23:45;99817.0;;;8.84;100.0
64453;BME280;50813;52.654;6.766;2023-04-24T06:25:25;99821.0;;;8.88;100.0
64453;BME280;50813;52.654;6.766;2023-04-24T06:28:37;99821.0;;;8.88;100.0
64453;BME280;50813;52.654;6.766;2023-04-24T06:30:13;99825.0;;;8.88;100.0
64453;BME280;50813;52.654;6.766;2023-04-24T06:31:50;99827.0;;;8.9;100.0
64453;BME280;50813;52.654;6.766;2023-04-24T06:35:03;99825.0;;;8.9;100.0
64453;BME280;50813;52.654;6.766;2023-04-24T06:36:40;99830.0;;;8.92;100.0
64453;BME280;50813;52.654;6.766;2023-04-24T06:38:16;99822.0;;;8.83;100.0
64453;BME280;50813;52.654;6.766;2023-04-24T06:39:52;99824.0;;;8.91;100.0
64453;BME280;50813;52.654;6.766;2023-04-24T06:43:04;99825.0;;;9.06;100.0
64453;BME280;50813;52.654;6.766;2023-04-24T06:44:40;99828.0;;;9.01;100.0
64453;BME280;50813;52.654;6.766;2023-04-24T06:46:16;99835.0;;;9.01;100.0
64453;BME280;50813;52.654;6.766;2023-04-24T06:49:29;99827.0;;;8.93;100.0
64453;BME280;50813;52.654;6.766;2023-04-24T06:51:05;99837.0;;;8.86;100.0
64453;BME280;50813;52.654;6.766;2023-04-24T06:52:41;99835.0;;;8.97;100.0
64453;BME280;50813;52.654;6.766;2023-04-24T06:55:53;99847.0;;;8.97;100.0
64453;BME280;50813;52.654;6.766;2023-04-24T06:57:30;99837.0;;;8.94;100.0
64453;BME280;50813;52.654;6.766;2023-04-24T06:59:06;99842.0;;;8.97;100.0
64453;BME280;50813;52.654;6.766;2023-04-24T07:02:19;99851.0;;;8.89;100.0
64453;BME280;50813;52.654;6.766;2023-04-24T07:03:55;99845.0;;;8.93;100.0
64453;BME280;50813;52.654;6.766;2023-04-24T07:05:31;99849.0;;;8.93;100.0
64453;BME280;50813;52.654;6.766;2023-04-24T07:07:07;99847.0;;;8.98;100.0
64453;BME280;50813;52.654;6.766;2023-04-24T07:10:19;99852.0;;;8.93;100.0
64453;BME280;50813;52.654;6.766;2023-04-24T07:11:55;99853.0;;;8.94;100.0
64453;BME280;50813;52.654;6.766;2023-04-24T07:13:31;99850.0;;;8.9;100.0
64453;BME280;50813;52.654;6.766;2023-04-24T07:16:45;99855.0;;;8.86;100.0
64453;BME280;50813;52.654;6.766;2023-04-24T07:18:22;99864.0;;;8.89;100.0
64453;BME280;50813;52.654;6.766;2023-04-24T07:19:58;99869.0;;;9.0;100.0
64453;BME280;50813;52.654;6.766;2023-04-24T07:23:10;99876.0;;;8.94;100.0
64453;BME280;50813;52.654;6.766;2023-04-24T07:24:46;99875.0;;;9.01;100.0
64453;BME280;50813;52.654;6.766;2023-04-24T07:26:22;99875.0;;;8.93;100.0
64453;BME280;50813;52.654;6.766;2023-04-24T07:28:00;99880.0;;;9.07;100.0
64453;BME280;50813;52.654;6.766;2023-04-24T07:31:12;99882.0;;;9.06;100.0
64453;BME280;50813;52.654;6.766;2023-04-24T07:32:49;99884.0;;;9.14;100.0
64453;BME280;50813;52.654;6.766;2023-04-24T07:34:25;99880.0;;;9.22;100.0
64453;BME280;50813;52.654;6.766;2023-04-24T07:37:37;99876.0;;;9.3;100.0
64453;BME280;50813;52.654;6.766;2023-04-24T07:39:14;99888.0;;;9.21;100.0
64453;BME280;50813;52.654;6.766;2023-04-24T07:40:51;99892.0;;;9.24;100.0
64453;BME280;50813;52.654;6.766;2023-04-24T07:44:04;99882.0;;;9.3;100.0
64453;BME280;50813;52.654;6.766;2023-04-24T07:45:40;99892.0;;;9.39;100.0
64453;BME280;50813;52.654;6.766;2023-04-24T07:47:16;99891.0;;;9.39;100.0
64453;BME280;50813;52.654;6.766;2023-04-24T07:48:52;99894.0;;;9.55;100.0
64453;BME280;50813;52.654;6.766;2023-04-24T07:52:06;99900.0;;;9.61;100.0
64453;BME280;50813;52.654;6.766;2023-04-24T07:53:42;99899.0;;;9.65;100.0
64453;BME280;50813;52.654;6.766;2023-04-24T07:55:19;99903.0;;;9.86;100.0
64453;BME280;50813;52.654;6.766;2023-04-24T07:58:32;99903.0;;;9.88;100.0
64453;BME280;50813;52.654;6.766;2023-04-24T08:00:09;99902.0;;;9.85;100.0
64453;BME280;50813;52.654;6.766;2023-04-24T08:01:45;99907.0;;;9.9;100.0
64453;BME280;50813;52.654;6.766;2023-04-24T08:04:58;99905.0;;;9.9;100.0
64453;BME280;50813;52.654;6.766;2023-04-24T08:06:34;99906.0;;;9.86;100.0
64453;BME280;50813;52.654;6.766;2023-04-24T08:08:10;99909.0;;;9.94;100.0
64453;BME280;50813;52.654;6.766;2023-04-24T08:11:23;99914.0;;;9.98;100.0
64453;BME280;50813;52.654;6.766;2023-04-24T08:12:59;99921.0;;;9.97;100.0
64453;BME280;50813;52.654;6.766;2023-04-24T08:14:35;99926.0;;;9.96;100.0
64453;BME280;50813;52.654;6.766;2023-04-24T08:16:12;99930.0;;;9.89;100.0
64453;BME280;50813;52.654;6.766;2023-04-24T08:19:24;99932.0;;;9.86;100.0
64453;BME280;50813;52.654;6.766;2023-04-24T08:21:00;99933.0;;;9.9;100.0
64453;BME280;50813;52.654;6.766;2023-04-24T08:22:36;99943.0;;;9.86;100.0
64453;BME280;50813;52.654;6.766;2023-04-24T08:25:48;99941.0;;;9.93;100.0
64453;BME280;50813;52.654;6.766;2023-04-24T08:27:25;99946.0;;;9.98;100.0
64453;BME280;50813;52.654;6.766;2023-04-24T08:29:02;99953.0;;;10.06;100.0
64453;BME280;50813;52.654;6.766;2023-04-24T08:32:15;99958.0;;;10.09;100.0
64453;BME280;50813;52.654;6.766;2023-04-24T08:33:51;99967.0;;;10.19;100.0
64453;BME280;50813;52.654;6.766;2023-04-24T08:35:27;99970.0;;;10.22;100.0
64453;BME280;50813;52.654;6.766;2023-04-24T08:37:03;99972.0;;;10.3;100.0
64453;BME280;50813;52.654;6.766;2023-04-24T08:40:16;99978.0;;;10.28;100.0
64453;BME280;50813;52.654;6.766;2023-04-24T08:41:53;99986.0;;;10.36;100.0
64453;BME280;50813;52.654;6.766;2023-04-24T08:43:31;99985.0;;;10.45;100.0
64453;BME280;50813;52.654;6.766;2023-04-24T08:46:48;99986.0;;;10.28;100.0
64453;BME280;50813;52.654;6.766;2023-04-24T08:48:25;99991.0;;;10.31;100.0
64453;BME280;50813;52.654;6.766;2023-04-24T08:50:02;99997.0;;;10.32;100.0
64453;BME280;50813;52.654;6.766;2023-04-24T08:51:39;100001.0;;;10.34;100.0
64453;BME280;50813;52.654;6.766;2023-04-24T08:54:54;100000.0;;;10.34;100.0
64453;BME280;50813;52.654;6.766;2023-04-24T08:56:32;100005.0;;;10.3;100.0
64453;BME280;50813;52.654;6.766;2023-04-24T08:58:10;100008.0;;;10.25;100.0
64453;BME280;50813;52.654;6.766;2023-04-24T09:01:23;100023.0;;;10.18;100.0
64453;BME280;50813;52.654;6.766;2023-04-24T09:03:02;100023.0;;;10.01;100.0
64453;BME280;50813;52.654;6.766;2023-04-24T09:04:40;100031.0;;;9.94;100.0
64453;BME280;50813;52.654;6.766;2023-04-24T09:06:19;100032.0;;;9.92;100.0
64453;BME280;50813;52.654;6.766;2023-04-24T09:09:38;100038.0;;;9.84;100.0
64453;BME280;50813;52.654;6.766;2023-04-24T09:11:15;100041.0;;;9.74;100.0
64453;BME280;50813;52.654;6.766;2023-04-24T09:12:52;100046.0;;;9.64;100.0
64453;BME280;50813;52.654;6.766;2023-04-24T09:16:06;100050.0;;;9.67;100.0
64453;BME280;50813;52.654;6.766;2023-04-24T09:17:43;100053.0;;;9.73;100.0
64453;BME280;50813;52.654;6.766;2023-04-24T09:19:19;100057.0;;;9.74;100.0
64453;BME280;50813;52.654;6.766;2023-04-24T09:20:57;100066.0;;;9.78;100.0
64453;BME280;50813;52.654;6.766;2023-04-24T09:24:15;100067.0;;;9.8;100.0
64453;BME280;50813;52.654;6.766;2023-04-24T09:25:54;100077.0;;;9.74;100.0
64453;BME280;50813;52.654;6.766;2023-04-24T09:27:31;100086.0;;;9.66;100.0
64453;BME280;50813;52.654;6.766;2023-04-24T09:31:02;100087.0;;;9.65;100.0
64453;BME280;50813;52.654;6.766;2023-04-24T09:32:39;100095.0;;;9.52;100.0
64453;BME280;50813;52.654;6.766;2023-04-24T09:34:21;100096.0;;;9.5;100.0
64453;BME280;50813;52.654;6.766;2023-04-24T09:35:58;100105.0;;;9.61;100.0
64453;BME280;50813;52.654;6.766;2023-04-24T09:39:14;100106.0;;;9.44;100.0
64453;BME280;50813;52.654;6.766;2023-04-24T09:40:51;100110.0;;;9.46;100.0
64453;BME280;50813;52.654;6.766;2023-04-24T09:42:29;100113.0;;;9.57;100.0
64453;BME280;50813;52.654;6.766;2023-04-24T09:44:11;100123.0;;;9.6;100.0
64453;BME280;50813;52.654;6.766;2023-04-24T09:47:25;100124.0;;;9.65;100.0
64453;BME280;50813;52.654;6.766;2023-04-24T09:49:08;100131.0;;;9.75;100.0
64453;BME280;50813;52.654;6.766;2023-04-24T09:50:46;100137.0;;;9.74;100.0
64453;BME280;50813;52.654;6.766;2023-04-24T09:52:22;100139.0;;;9.73;100.0
64453;BME280;50813;52.654;6.766;2023-04-24T09:55:38;100146.0;;;9.86;100.0
64453;BME280;50813;52.654;6.766;2023-04-24T09:57:15;100147.0;;;9.73;100.0
64453;BME280;50813;52.654;6.766;2023-04-24T09:58:52;100153.0;;;9.78;100.0
64453;BME280;50813;52.654;6.766;2023-04-24T10:02:16;100162.0;;;9.75;100.0
64453;BME280;50813;52.654;6.766;2023-04-24T10:03:53;100162.0;;;9.73;100.0
64453;BME280;50813;52.654;6.766;2023-04-24T10:05:31;100170.0;;;9.8;100.0
64453;BME280;50813;52.654;6.766;2023-04-24T10:07:08;100167.0;;;9.56;100.0
64453;BME280;50813;52.654;6.766;2023-04-24T10:10:21;100177.0;;;9.64;100.0
64453;BME280;50813;52.654;6.766;2023-04-24T10:11:58;100180.0;;;9.81;100.0
64453;BME280;50813;52.654;6.766;2023-04-24T10:13:35;100187.0;;;9.78;100.0
64453;BME280;50813;52.654;6.766;2023-04-24T10:16:50;100187.0;;;9.69;100.0
64453;BME280;50813;52.654;6.766;2023-04-24T10:18:29;100189.0;;;9.75;100.0
64453;BME280;50813;52.654;6.766;2023-04-24T10:20:06;100189.0;;;9.75;100.0
64453;BME280;50813;52.654;6.766;2023-04-24T10:21:43;100196.0;;;9.64;100.0
64453;BME280;50813;52.654;6.766;2023-04-24T10:24:58;100198.0;;;9.65;100.0
64453;BME280;50813;52.654;6.766;2023-04-24T10:26:35;100198.0;;;9.72;100.0
64453;BME280;50813;52.654;6.766;2023-04-24T10:28:11;100205.0;;;9.71;100.0
64453;BME280;50813;52.654;6.766;2023-04-24T10:31:31;100201.0;;;9.66;100.0
64453;BME280;50813;52.654;6.766;2023-04-24T10:33:08;100206.0;;;9.65;100.0
64453;BME280;50813;52.654;6.766;2023-04-24T10:34:45;100205.0;;;9.53;100.0
64453;BME280;50813;52.654;6.766;2023-04-24T10:36:22;100214.0;;;9.57;100.0
64453;BME280;50813;52.654;6.766;2023-04-24T10:39:41;100222.0;;;9.68;100.0
64453;BME280;50813;52.654;6.766;2023-04-24T10:41:17;100223.0;;;9.73;100.0
64453;BME280;50813;52.654;6.766;2023-04-24T10:42:55;100226.0;;;9.81;100.0
64453;BME280;50813;52.654;6.766;2023-04-24T10:46:19;100231.0;;;9.8;100.0
64453;BME280;50813;52.654;6.766;2023-04-24T10:47:58;100238.0;;;9.41;100.0
64453;BME280;50813;52.654;6.766;2023-04-24T10:49:35;100246.0;;;9.16;100.0
64453;BME280;50813;52.654;6.766;2023-04-24T10:51:12;100256.0;;;8.94;100.0
64453;BME280;50813;52.654;6.766;2023-04-24T10:54:27;100263.0;;;8.81;100.0
64453;BME280;50813;52.654;6.766;2023-04-24T10:56:05;100266.0;;;8.89;100.0
64453;BME280;50813;52.654;6.766;2023-04-24T10:58:01;100271.0;;;8.9;100.0
64453;BME280;50813;52.654;6.766;2023-04-24T10:59:38;100271.0;;;8.94;100.0
64453;BME280;50813;52.654;6.766;2023-04-24T11:03:23;100274.0;;;8.98;100.0
64453;BME280;50813;52.654;6.766;2023-04-24T11:05:03;100280.0;;;8.89;100.0
64453;BME280;50813;52.654;6.766;2023-04-24T11:06:40;100283.0;;;8.82;100.0
64453;BME280;50813;52.654;6.766;2023-04-24T11:08:23;100291.0;;;8.98;100.0
64453;BME280;50813;52.654;6.766;2023-04-24T11:10:00;100294.0;;;9.01;100.0
64453;BME280;50813;52.654;6.766;2023-04-24T11:13:16;100290.0;;;9.0;100.0
64453;BME280;50813;52.654;6.766;2023-04-24T11:15:01;100301.0;;;9.15;100.0
64453;BME280;50813;52.654;6.766;2023-04-24T11:16:46;100306.0;;;9.09;100.0
64453;BME280;50813;52.654;6.766;2023-04-24T11:18:37;100294.0;;;9.06;100.0
64453;BME280;50813;52.654;6.766;2023-04-24T11:20:17;100301.0;;;8.91;100.0
64453;BME280;50813;52.654;6.766;2023-04-24T11:23:36;100305.0;;;9.07;100.0